Terminal Aerodrome Forecast
Issued by NWS

Home | Current Version | Previous Version | Text Only | Print | Product List | Glossary On
Versions: 1 2 3 4 5 6 7 8 9 10 11 12 13 14 15 16 17 18 19 20 21 22 23 24 25 26 27
000
FTUS45 KTWC 260500
TAFOLS
TAF
KOLS 260520Z 2606/2706 VRB05KT P6SM VCSH SCT070 BKN150
     FM260900 VRB04KT P6SM FEW100
     FM261900 26010KT P6SM SCT060
     FM270000 29012KT P6SM VCSH SCT070 BKN110=

USA.gov is the U.S. government's official web portal to all federal, state and local government web resources and services.